createdAt,value
2023-05-14T00:04:06.080Z,6.82
2023-05-14T00:09:07.747Z,6.72
2023-05-14T00:14:09.451Z,6.15
2023-05-14T00:19:12.452Z,7.88
2023-05-14T00:24:14.203Z,6.72
2023-05-14T00:29:15.791Z,7.65
2023-05-14T00:34:18.846Z,9.05
2023-05-14T00:39:21.512Z,9.95
2023-05-14T00:44:23.091Z,8.15
2023-05-14T00:49:28.107Z,10.73
2023-05-14T00:54:30.573Z,9.90
2023-05-14T00:59:33.819Z,7.57
2023-05-14T01:04:37.266Z,8.98
2023-05-14T01:09:44.981Z,10.00
2023-05-14T01:20:11.912Z,9.90
2023-05-14T01:25:14.906Z,9.45
2023-05-14T01:30:25.716Z,8.77
2023-05-14T01:35:29.812Z,11.00
2023-05-14T01:40:33.384Z,14.35
2023-05-14T01:45:36.495Z,15.20
2023-05-14T01:50:38.194Z,16.17
2023-05-14T01:55:42.160Z,15.95
2023-05-14T02:00:43.870Z,16.42
2023-05-14T02:05:45.524Z,17.45
2023-05-14T02:10:48.662Z,17.33
2023-05-14T02:15:52.366Z,17.48
2023-05-14T02:20:55.198Z,17.95
2023-05-14T02:25:58.143Z,16.48
2023-05-14T02:30:59.853Z,16.90
2023-05-14T02:36:04.011Z,13.07
2023-05-14T02:41:08.503Z,14.02
2023-05-14T02:46:10.058Z,14.07
2023-05-14T02:51:12.898Z,15.63
2023-05-14T02:56:15.935Z,18.38
2023-05-14T03:01:17.775Z,15.23
2023-05-14T03:06:21.874Z,12.77
2023-05-14T03:11:25.159Z,17.02
2023-05-14T03:16:27.062Z,18.27
2023-05-14T03:21:28.853Z,19.85
2023-05-14T03:26:31.950Z,14.55
2023-05-14T03:31:33.577Z,19.05
2023-05-14T03:36:35.358Z,10.82
2023-05-14T03:41:40.388Z,21.80
2023-05-14T03:52:07.732Z,15.05
2023-05-14T03:57:13.128Z,19.20
2023-05-14T04:02:17.599Z,14.38
2023-05-14T04:07:19.317Z,15.25
2023-05-14T04:12:25.659Z,16.75
2023-05-14T04:17:27.273Z,17.92
2023-05-14T04:22:28.960Z,10.68
2023-05-14T04:27:32.978Z,14.93
2023-05-14T04:32:36.866Z,15.55
2023-05-14T04:37:38.645Z,18.88
2023-05-14T04:42:41.639Z,18.55
2023-05-14T04:47:43.387Z,22.83
2023-05-14T04:52:45.062Z,19.48
2023-05-14T04:57:48.055Z,15.35
2023-05-14T05:02:51.784Z,10.43
2023-05-14T05:07:56.127Z,14.25
2023-05-14T05:12:59.100Z,13.82
2023-05-14T05:18:03.175Z,14.30
2023-05-14T05:23:04.971Z,12.85
2023-05-14T05:28:10.295Z,13.20
2023-05-14T05:33:12.271Z,10.27
2023-05-14T05:38:14.096Z,15.82
2023-05-14T05:43:17.084Z,12.60
2023-05-14T05:48:18.726Z,11.07
2023-05-14T05:53:20.373Z,13.00
2023-05-14T05:58:23.433Z,16.08
2023-05-14T06:03:25.301Z,13.10
2023-05-14T06:08:27.938Z,14.27
2023-05-14T06:13:30.919Z,11.55
2023-05-14T06:18:32.620Z,10.93
2023-05-14T06:23:34.212Z,14.27
2023-05-14T06:28:37.283Z,13.27
2023-05-14T06:33:38.982Z,13.77
2023-05-14T06:38:40.581Z,13.23
2023-05-14T06:43:58.395Z,12.18
2023-05-14T06:49:00.071Z,16.40
2023-05-14T06:54:03.748Z,18.70
2023-05-14T06:59:06.846Z,16.80
2023-05-14T07:04:08.605Z,16.52
2023-05-14T07:09:10.324Z,11.75
2023-05-14T07:14:13.407Z,12.55
2023-05-14T07:19:17.365Z,13.10
2023-05-14T07:24:21.658Z,11.43
2023-05-14T07:29:33.428Z,10.13
2023-05-14T07:34:35.218Z,8.95
2023-05-14T07:39:36.870Z,9.43
2023-05-14T07:44:39.860Z,8.73
2023-05-14T07:49:41.498Z,10.85
2023-05-14T07:54:43.188Z,9.95
2023-05-14T07:59:55.036Z,10.43
2023-05-14T08:04:56.776Z,6.07
2023-05-14T08:09:58.437Z,6.13
2023-05-14T08:15:06.627Z,6.43
2023-05-14T08:20:11.396Z,9.13
2023-05-14T08:25:13.260Z,8.02
2023-05-14T08:30:16.762Z,7.30
2023-05-14T08:35:19.790Z,7.22
2023-05-14T08:40:22.000Z,9.63
2023-05-14T08:45:30.962Z,7.32
2023-05-14T08:50:32.814Z,6.10
2023-05-14T08:55:35.715Z,7.15
2023-05-14T09:00:41.216Z,8.88
2023-05-14T09:05:44.167Z,6.75
2023-05-14T09:10:48.093Z,7.07
2023-05-14T09:15:51.823Z,7.47
2023-05-14T09:20:53.501Z,7.82
2023-05-14T09:25:55.175Z,7.57
2023-05-14T09:30:58.193Z,7.53
2023-05-14T09:36:00.411Z,9.48
2023-05-14T09:41:02.050Z,5.47
2023-05-14T09:46:07.564Z,8.40
2023-05-14T09:51:10.076Z,9.65
2023-05-14T09:56:11.736Z,7.95
2023-05-14T10:01:17.624Z,5.68
2023-05-14T10:06:25.804Z,5.03
2023-05-14T10:11:31.805Z,7.07
2023-05-14T10:16:43.615Z,6.97
2023-05-14T10:21:50.667Z,10.05
2023-05-14T10:26:52.692Z,7.27
2023-05-14T10:32:03.101Z,6.35
2023-05-14T10:37:07.150Z,4.80
2023-05-14T10:42:10.802Z,8.50
2023-05-14T10:47:20.492Z,5.85
2023-05-14T10:52:25.278Z,7.03
2023-05-14T10:57:31.776Z,6.05
2023-05-14T11:02:36.399Z,4.95
2023-05-14T11:07:39.882Z,4.63
2023-05-14T11:12:43.166Z,4.28
2023-05-14T11:17:49.333Z,5.05
2023-05-14T11:22:51.083Z,5.22
2023-05-14T11:27:52.913Z,4.75
2023-05-14T11:32:56.263Z,3.58
2023-05-14T11:38:00.357Z,5.00
2023-05-14T11:43:02.082Z,3.35
2023-05-14T11:48:20.066Z,4.55
2023-05-14T11:58:33.184Z,3.53
2023-05-14T12:03:36.663Z,3.97
2023-05-14T12:08:38.812Z,4.30
2023-05-14T12:13:40.489Z,4.20
2023-05-14T12:18:43.610Z,3.45
2023-05-14T12:23:45.307Z,3.22
2023-05-14T12:28:47.866Z,3.65
2023-05-14T12:33:58.917Z,3.00
2023-05-14T12:39:02.289Z,2.67
2023-05-14T12:44:06.016Z,3.60
2023-05-14T12:49:11.232Z,3.00
2023-05-14T12:54:12.931Z,2.20
2023-05-14T12:59:14.465Z,2.42
2023-05-14T13:04:17.569Z,2.35
2023-05-14T13:09:19.191Z,3.92
2023-05-14T13:14:22.170Z,4.15
2023-05-14T13:19:25.177Z,2.97
2023-05-14T13:24:26.843Z,3.97
2023-05-14T13:29:28.456Z,3.72
2023-05-14T13:34:31.466Z,3.33
2023-05-14T13:39:33.117Z,2.40
2023-05-14T13:44:34.706Z,2.30
2023-05-14T13:49:37.733Z,2.20
2023-05-14T13:54:39.413Z,4.95
2023-05-14T13:59:41.158Z,3.53
2023-05-14T14:04:44.227Z,3.90
2023-05-14T14:09:46.896Z,2.40
2023-05-14T14:14:48.435Z,2.00
2023-05-14T14:19:53.825Z,2.10
2023-05-14T14:24:55.418Z,1.70
2023-05-14T14:29:57.021Z,2.13
2023-05-14T14:35:02.286Z,3.10
2023-05-14T14:40:04.589Z,3.03
2023-05-14T14:45:09.297Z,3.50
2023-05-14T14:50:14.503Z,3.47
2023-05-14T14:55:16.063Z,3.17
2023-05-14T15:00:17.996Z,3.17
2023-05-14T15:05:21.050Z,3.92
2023-05-14T15:10:22.867Z,3.28
2023-05-14T15:15:26.351Z,2.50
2023-05-14T15:20:31.947Z,2.47
2023-05-14T15:25:36.039Z,2.88
2023-05-14T15:30:40.000Z,2.50
2023-05-14T15:35:45.517Z,2.90
2023-05-14T15:40:47.237Z,3.55
2023-05-14T15:45:48.836Z,3.33
2023-05-14T15:50:54.276Z,4.55
2023-05-14T15:56:01.031Z,7.43
2023-05-14T16:07:09.659Z,4.90
2023-05-14T16:12:11.504Z,4.28
2023-05-14T16:17:13.116Z,5.13
2023-05-14T16:22:16.188Z,5.80
2023-05-14T16:27:17.882Z,6.15
2023-05-14T16:32:20.521Z,5.00
2023-05-14T16:37:23.652Z,5.50
2023-05-14T16:42:27.452Z,5.35
2023-05-14T16:47:29.216Z,5.40
2023-05-14T16:52:36.008Z,5.40
2023-05-14T16:57:37.670Z,5.03
2023-05-14T17:02:39.403Z,5.68
2023-05-14T17:13:02.293Z,5.40
2023-05-14T17:18:05.538Z,4.57
2023-05-14T17:23:10.849Z,4.55
2023-05-14T17:28:13.800Z,4.18
2023-05-14T17:33:15.621Z,4.78
2023-05-14T17:38:18.622Z,4.97
2023-05-14T17:43:20.271Z,4.30
2023-05-14T17:48:22.127Z,5.53
2023-05-14T17:53:25.107Z,3.85
2023-05-14T17:58:26.914Z,4.72
2023-05-14T18:03:28.626Z,5.07
2023-05-14T18:08:31.701Z,5.43
2023-05-14T18:13:33.417Z,4.97
2023-05-14T18:18:36.195Z,5.10
2023-05-14T18:23:39.261Z,4.90
2023-05-14T18:28:40.972Z,5.57
2023-05-14T18:33:42.710Z,5.63
2023-05-14T18:38:45.659Z,5.82
2023-05-14T18:43:47.587Z,6.47
2023-05-14T18:49:01.558Z,5.32
2023-05-14T18:54:07.036Z,6.35
2023-05-14T18:59:08.745Z,6.30
2023-05-14T19:04:10.427Z,6.88
2023-05-14T19:09:13.552Z,12.55
2023-05-14T19:14:15.203Z,4.85
2023-05-14T19:19:17.016Z,4.05
2023-05-14T19:24:25.214Z,3.72
2023-05-14T19:29:28.892Z,3.50
2023-05-14T19:34:30.457Z,3.60
2023-05-14T19:39:33.470Z,3.53
2023-05-14T19:44:35.063Z,3.75
2023-05-14T19:49:36.716Z,4.65
2023-05-14T19:54:42.108Z,5.18
2023-05-14T19:59:43.782Z,5.10
2023-05-14T20:04:54.011Z,4.68
2023-05-14T20:09:59.473Z,4.90
2023-05-14T20:15:03.075Z,4.35
2023-05-14T20:20:06.166Z,3.88
2023-05-14T20:25:09.781Z,3.80
2023-05-14T20:30:12.105Z,4.43
2023-05-14T20:35:13.707Z,3.58
2023-05-14T20:40:16.861Z,3.70
2023-05-14T20:51:23.537Z,3.30
2023-05-14T20:56:29.081Z,4.63
2023-05-14T21:01:30.712Z,5.00
2023-05-14T21:06:32.352Z,6.03
2023-05-14T21:17:41.232Z,5.65
2023-05-14T21:22:42.975Z,5.47
2023-05-14T21:27:44.689Z,5.28
2023-05-14T21:32:49.952Z,5.32
2023-05-14T21:37:51.750Z,4.85
2023-05-14T21:42:53.394Z,5.38
2023-05-14T21:47:56.457Z,6.28
2023-05-14T21:52:58.160Z,7.30
2023-05-14T21:58:56.100Z,6.60
2023-05-14T22:03:59.205Z,7.03
2023-05-14T22:09:00.794Z,7.22
2023-05-14T22:14:02.420Z,6.25
2023-05-14T22:19:06.640Z,7.72
2023-05-14T22:24:16.098Z,7.03
2023-05-14T22:29:17.752Z,7.00
2023-05-14T22:34:20.816Z,7.03
2023-05-14T22:39:23.514Z,7.47
2023-05-14T22:44:29.745Z,6.38
2023-05-14T22:49:35.836Z,5.68
2023-05-14T22:54:37.495Z,6.60
2023-05-14T22:59:41.193Z,6.00
2023-05-14T23:04:44.177Z,5.60
2023-05-14T23:09:45.767Z,6.80
2023-05-14T23:14:51.275Z,6.70
2023-05-14T23:20:01.734Z,6.78
2023-05-14T23:25:03.585Z,6.68
2023-05-14T23:30:06.217Z,6.82
2023-05-14T23:35:09.619Z,6.15
2023-05-14T23:40:11.593Z,6.43
2023-05-14T23:45:13.451Z,6.82
2023-05-14T23:55:32.213Z,7.60
